Terminal Aerodrome Forecast
Issued by NWS Atlanta, GA

Home | Current Version | Previous Version | Text Only | Print | Product List | Glossary On
Versions: 1 2 3 4 5 6 7 8 9 10 11 12 13 14 15 16 17 18 19 20 21 22 23 24 25 26 27 28 29 30 31 32 33 34 35 36 37 38 39 40 41 42 43 44
000
FTUS42 KFFC 181400 AAC
TAFATL
TAF AMD
KATL 181406Z 1814/1918 06005KT P6SM SCT008 SCT025
      TEMPO 1814/1815 6SM HZ BKN006
     FM181800 34005KT P6SM SCT045
     FM190500 02006KT P6SM SCT025
     FM190900 05006KT P6SM OVC010
     FM191500 08008KT P6SM OVC020=

USA.gov is the U.S. government's official web portal to all federal, state and local government web resources and services.